createdAt,value
2023-04-19T00:02:09.763Z,16.36
2023-04-19T00:04:44.685Z,16.34
2023-04-19T00:07:14.391Z,16.29
2023-04-19T00:13:10.254Z,16.28
2023-04-19T00:15:41.722Z,16.25
2023-04-19T00:18:13.224Z,16.24
2023-04-19T01:38:15.475Z,15.57
2023-04-19T01:40:48.453Z,15.54
2023-04-19T01:47:08.494Z,15.44
2023-04-19T01:50:14.807Z,15.38
2023-04-19T01:59:16.590Z,15.13
2023-04-19T02:02:12.898Z,15.08
2023-04-19T02:05:18.362Z,14.96
2023-04-19T02:08:38.308Z,14.87
2023-04-19T02:15:10.274Z,14.74
2023-04-19T02:18:08.875Z,14.75
2023-04-19T02:24:13.617Z,14.99
2023-04-19T02:27:10.161Z,15.02
2023-04-19T02:30:14.537Z,15.04
2023-04-19T02:35:55.292Z,14.81
2023-04-19T02:38:58.984Z,14.68
2023-04-19T02:42:10.292Z,14.73
2023-04-19T02:45:09.197Z,14.74
2023-04-19T02:49:12.045Z,14.67
2023-04-19T02:51:10.092Z,14.60
2023-04-19T02:54:12.582Z,14.57
2023-04-19T02:57:17.274Z,14.47
2023-04-19T03:00:14.961Z,14.48
2023-04-19T03:06:38.753Z,14.63
2023-04-19T03:09:09.866Z,14.74
2023-04-19T03:11:39.940Z,14.79
2023-04-19T03:19:42.441Z,14.89
2023-04-19T03:22:10.808Z,14.89
2023-04-19T03:24:39.138Z,14.83
2023-04-19T03:27:13.385Z,14.81
2023-04-19T03:30:09.866Z,14.81
2023-04-19T03:32:39.415Z,14.61
2023-04-19T03:35:10.908Z,14.38
2023-04-19T03:38:10.256Z,14.28
2023-04-19T03:40:39.657Z,14.06
2023-04-19T03:43:09.455Z,13.99
2023-04-19T03:46:11.206Z,13.90
2023-04-19T03:49:09.900Z,13.83
2023-04-19T03:52:14.892Z,13.67
2023-04-19T03:55:15.032Z,13.53
2023-04-19T03:58:18.843Z,13.40
2023-04-19T04:01:09.375Z,13.32
2023-04-19T04:03:42.004Z,13.32
2023-04-19T04:06:11.546Z,13.30
2023-04-19T04:08:39.822Z,13.28
2023-04-19T04:11:17.212Z,13.25
2023-04-19T04:14:17.713Z,13.25
2023-04-19T04:17:10.810Z,13.26
2023-04-19T04:19:39.254Z,13.18
2023-04-19T04:22:13.275Z,13.15
2023-04-19T04:28:08.369Z,13.21
2023-04-19T04:30:39.919Z,13.16
2023-04-19T04:33:09.527Z,13.14
2023-04-19T04:36:09.713Z,13.15
2023-04-19T04:41:11.949Z,13.36
2023-04-19T04:43:40.604Z,13.31
2023-04-19T04:48:39.705Z,13.20
2023-04-19T04:51:09.471Z,13.11
2023-04-19T04:53:41.685Z,13.22
2023-04-19T04:58:42.503Z,13.18
2023-04-19T05:01:13.510Z,13.14
2023-04-19T05:03:42.245Z,13.03
2023-04-19T05:06:10.680Z,12.97
2023-04-19T05:12:39.554Z,12.82
2023-04-19T05:15:10.084Z,12.69
2023-04-19T05:20:42.701Z,12.56
2023-04-19T05:23:14.852Z,12.50
2023-04-19T05:28:28.748Z,12.38
2023-04-19T05:31:39.094Z,12.36
2023-04-19T05:34:38.304Z,12.34
2023-04-19T05:37:10.255Z,12.28
2023-04-19T05:39:38.530Z,12.26
2023-04-19T05:42:10.713Z,12.26
2023-04-19T05:44:39.017Z,12.22
2023-04-19T05:47:40.628Z,12.19
2023-04-19T05:50:17.135Z,12.11
2023-04-19T05:55:38.467Z,12.05
2023-04-19T06:01:41.722Z,11.96
2023-04-19T06:04:43.644Z,11.96
2023-04-19T06:07:22.385Z,11.89
2023-04-19T06:10:51.831Z,11.89
2023-04-19T06:13:45.666Z,11.88
2023-04-19T06:16:38.722Z,11.85
2023-04-19T06:19:09.054Z,11.85
2023-04-19T06:21:38.556Z,11.88
2023-04-19T06:24:40.966Z,11.91
2023-04-19T06:27:40.057Z,12.10
2023-04-19T06:30:09.554Z,12.11
2023-04-19T06:35:09.767Z,12.02
2023-04-19T06:37:41.260Z,12.00
2023-04-19T06:40:40.107Z,11.91
2023-04-19T06:45:52.786Z,11.83
2023-04-19T06:48:43.167Z,11.83
2023-04-19T06:54:39.474Z,11.77
2023-04-19T06:57:40.521Z,11.74
2023-04-19T07:00:39.607Z,11.73
2023-04-19T07:03:08.134Z,11.67
2023-04-19T07:05:37.931Z,11.64
2023-04-19T07:08:06.575Z,11.61
2023-04-19T07:10:38.255Z,11.58
2023-04-19T07:16:39.125Z,11.55
2023-04-19T07:19:07.680Z,11.51
2023-04-19T07:21:41.508Z,11.51
2023-04-19T07:27:38.231Z,11.42
2023-04-19T07:30:10.034Z,11.32
2023-04-19T07:32:42.463Z,11.27
2023-04-19T07:41:08.353Z,11.16
2023-04-19T07:43:41.113Z,11.12
2023-04-19T07:46:14.537Z,11.13
2023-04-19T07:48:42.910Z,11.10
2023-04-19T07:51:20.415Z,11.11
2023-04-19T07:53:49.501Z,11.08
2023-04-19T07:56:49.751Z,11.12
2023-04-19T07:59:36.921Z,11.09
2023-04-19T08:02:09.280Z,11.05
2023-04-19T08:07:10.566Z,11.02
2023-04-19T08:09:39.765Z,11.02
2023-04-19T08:12:14.688Z,11.03
2023-04-19T08:15:00.597Z,11.04
2023-04-19T08:17:41.906Z,11.05
2023-04-19T08:20:15.698Z,11.03
2023-04-19T08:22:44.631Z,11.01
2023-04-19T08:25:13.033Z,10.96
2023-04-19T08:27:41.283Z,10.94
2023-04-19T08:30:10.434Z,10.91
2023-04-19T08:35:27.796Z,10.89
2023-04-19T08:37:57.015Z,10.89
2023-04-19T08:41:08.161Z,10.90
2023-04-19T08:43:41.795Z,10.87
2023-04-19T08:46:12.271Z,10.86
2023-04-19T08:49:13.276Z,10.84
2023-04-19T08:54:48.911Z,10.77
2023-04-19T08:57:20.229Z,10.72
2023-04-19T09:01:06.378Z,10.66
2023-04-19T09:07:10.122Z,10.49
2023-04-19T09:09:55.639Z,10.42
2023-04-19T09:13:05.639Z,10.41
2023-04-19T09:15:42.816Z,10.37
2023-04-19T09:18:11.952Z,10.34
2023-04-19T09:20:43.010Z,10.26
2023-04-19T09:23:14.532Z,10.23
2023-04-19T09:32:11.733Z,10.27
2023-04-19T09:35:14.846Z,10.30
2023-04-19T09:40:25.392Z,10.33
2023-04-19T09:45:31.025Z,10.27
2023-04-19T09:48:08.544Z,10.25
2023-04-19T09:54:05.556Z,10.22
2023-04-19T09:57:07.296Z,10.21
2023-04-19T09:59:38.241Z,10.19
2023-04-19T10:02:07.529Z,10.14
2023-04-19T10:10:20.784Z,10.17
2023-04-19T10:13:19.587Z,10.17
2023-04-19T10:16:01.806Z,10.15
2023-04-19T10:18:37.423Z,10.12
2023-04-19T10:21:15.034Z,10.09
2023-04-19T10:24:08.401Z,10.08
2023-04-19T10:27:04.763Z,10.06
2023-04-19T10:30:13.615Z,10.02
2023-04-19T10:32:46.540Z,10.00
2023-04-19T10:36:08.743Z,10.00
2023-04-19T10:39:09.929Z,9.99
2023-04-19T10:42:10.067Z,9.98
2023-04-19T10:48:10.513Z,9.93
2023-04-19T10:51:12.546Z,9.92
2023-04-19T10:54:09.853Z,9.90
2023-04-19T10:59:39.525Z,9.87
2023-04-19T11:02:38.535Z,9.87
2023-04-19T11:05:12.595Z,9.88
2023-04-19T11:07:42.673Z,9.89
2023-04-19T11:10:43.302Z,9.90
2023-04-19T11:13:14.890Z,9.87
2023-04-19T11:18:37.598Z,9.83
2023-04-19T11:24:39.020Z,10.07
2023-04-19T11:27:35.591Z,10.27
2023-04-19T11:30:36.361Z,10.61
2023-04-19T11:33:39.018Z,10.89
2023-04-19T11:37:32.165Z,11.11
2023-04-19T11:42:46.443Z,11.22
2023-04-19T11:45:39.677Z,11.26
2023-04-19T11:48:39.732Z,11.31
2023-04-19T11:51:35.677Z,11.27
2023-04-19T11:54:33.094Z,11.22
2023-04-19T11:57:07.407Z,11.28
2023-04-19T11:59:37.975Z,11.36
2023-04-19T12:02:41.901Z,11.42
2023-04-19T12:29:40.471Z,11.15
2023-04-19T12:44:59.216Z,10.80
2023-04-19T12:54:32.030Z,10.49
2023-04-19T12:57:38.093Z,10.47
2023-04-19T13:00:32.302Z,10.50
2023-04-19T13:03:05.744Z,10.41
2023-04-19T13:05:34.266Z,10.37
2023-04-19T13:08:02.937Z,10.23
2023-04-19T13:10:32.283Z,10.20
2023-04-19T13:13:01.696Z,10.14
2023-04-19T13:15:33.343Z,10.06
2023-04-19T14:15:07.146Z,9.74
